Time;durP1;ratioP1;P1;durP2;ratioP2;P2;SDS_P1;SDS_P2;PMS_P1;PMS_P2;Temp;Humidity;BMP_temperature;BMP_pressure;BME280_temperature;BME280_humidity;BME280_pressure;Samples;Min_cycle;Max_cycle;Signal;HPM_P1;HPM_P2
2023/12/26 00:00:36;;;;;;;4.63;3.38;;;;;;;;;;10287993;28;20080;-45
2023/12/26 00:05:35;;;;;;;10.05;3.75;;;;;;;;;;10290635;28;20076;-50
2023/12/26 00:10:35;;;;;;;4.65;3.08;;;;;;;;;;10293519;28;20440;-48
2023/12/26 00:15:33;;;;;;;4.65;3.38;;;;;;;;;;10290581;28;20075;-47
2023/12/26 00:20:32;;;;;;;5.15;3.00;;;;;;;;;;10291291;28;20071;-54
2023/12/26 00:25:30;;;;;;;5.68;3.83;;;;;;;;;;10289668;28;20068;-50
2023/12/26 00:30:30;;;;;;;6.28;3.75;;;;;;;;;;10290264;28;20076;-47
2023/12/26 00:35:28;;;;;;;8.65;3.90;;;;;;;;;;10290450;28;20081;-47
2023/12/26 00:40:27;;;;;;;5.68;3.15;;;;;;;;;;10289882;28;20064;-48
2023/12/26 00:45:25;;;;;;;6.47;4.03;;;;;;;;;;10292978;28;20522;-49
2023/12/26 00:50:26;;;;;;;6.80;3.55;;;;;;;;;;10307432;28;20060;-47
2023/12/26 00:55:25;;;;;;;6.43;4.10;;;;;;;;;;10289011;28;20160;-47
2023/12/26 01:00:24;;;;;;;9.95;5.05;;;;;;;;;;10288940;28;20069;-48
2023/12/26 01:05:23;;;;;;;7.10;3.92;;;;;;;;;;10296633;28;20044;-49
2023/12/26 01:10:22;;;;;;;4.85;3.45;;;;;;;;;;10287735;28;20498;-46
2023/12/26 01:15:21;;;;;;;5.80;3.53;;;;;;;;;;10289647;28;20063;-48
2023/12/26 01:20:19;;;;;;;4.50;3.30;;;;;;;;;;10287487;28;20064;-52
2023/12/26 01:25:18;;;;;;;5.45;3.88;;;;;;;;;;10289703;28;20068;-53
2023/12/26 01:30:19;;;;;;;7.35;3.70;;;;;;;;;;10288500;28;20071;-48
2023/12/26 01:35:19;;;;;;;4.75;3.40;;;;;;;;;;10289295;28;20096;-50
2023/12/26 01:40:17;;;;;;;6.53;3.17;;;;;;;;;;10286124;28;20080;-47
2023/12/26 01:45:18;;;;;;;4.72;3.22;;;;;;;;;;10286183;28;20091;-48
2023/12/26 01:50:17;;;;;;;7.35;3.65;;;;;;;;;;10284668;28;20100;-47
2023/12/26 01:55:17;;;;;;;8.13;3.80;;;;;;;;;;10286847;28;20076;-47
2023/12/26 02:00:18;;;;;;;8.15;3.50;;;;;;;;;;10288635;28;20068;-52
2023/12/26 02:05:17;;;;;;;5.30;3.60;;;;;;;;;;10282031;28;20041;-51
2023/12/26 02:10:16;;;;;;;4.57;2.88;;;;;;;;;;10282207;28;20578;-51
2023/12/26 02:15:14;;;;;;;7.80;3.40;;;;;;;;;;10287642;28;20061;-53
2023/12/26 02:20:13;;;;;;;9.38;5.05;;;;;;;;;;10287086;28;20076;-52
2023/12/26 02:25:13;;;;;;;9.57;3.60;;;;;;;;;;10286084;28;20079;-51
2023/12/26 02:30:12;;;;;;;7.10;4.65;;;;;;;;;;10286282;28;20060;-50
2023/12/26 02:35:11;;;;;;;6.20;4.28;;;;;;;;;;10287344;28;20088;-49
2023/12/26 02:40:10;;;;;;;16.50;12.48;;;;;;;;;;10284772;28;20080;-50
2023/12/26 02:45:10;;;;;;;8.75;5.63;;;;;;;;;;10286458;28;20479;-50
2023/12/26 02:50:09;;;;;;;10.55;4.93;;;;;;;;;;10288691;28;20049;-50
2023/12/26 02:55:07;;;;;;;8.98;5.20;;;;;;;;;;10283510;28;20079;-51
2023/12/26 03:00:06;;;;;;;6.50;4.65;;;;;;;;;;10285286;28;20080;-50
2023/12/26 03:05:07;;;;;;;6.88;4.70;;;;;;;;;;10279192;28;20077;-52
2023/12/26 03:10:08;;;;;;;8.23;4.78;;;;;;;;;;10287741;28;20463;-51
2023/12/26 03:15:07;;;;;;;6.05;4.10;;;;;;;;;;10292788;28;20067;-51
2023/12/26 03:20:08;;;;;;;7.18;4.50;;;;;;;;;;10294062;28;20077;-51
2023/12/26 03:25:07;;;;;;;8.20;4.95;;;;;;;;;;10293153;28;20524;-53
2023/12/26 03:30:07;;;;;;;6.80;4.63;;;;;;;;;;10292784;28;20081;-51
2023/12/26 03:35:09;;;;;;;6.18;3.78;;;;;;;;;;10291663;28;20087;-51
2023/12/26 03:40:09;;;;;;;5.32;3.50;;;;;;;;;;10293023;28;20072;-54
2023/12/26 03:45:07;;;;;;;7.90;3.65;;;;;;;;;;10293173;28;20072;-51
2023/12/26 03:50:08;;;;;;;4.40;2.95;;;;;;;;;;10290640;28;20552;-52
2023/12/26 03:55:08;;;;;;;4.07;2.90;;;;;;;;;;10294559;28;20044;-50
2023/12/26 04:00:08;;;;;;;7.75;3.65;;;;;;;;;;10291794;28;20080;-52
2023/12/26 04:05:16;;;;;;;5.93;3.30;;;;;;;;;;10290543;28;20525;-52
2023/12/26 04:10:15;;;;;;;7.45;4.18;;;;;;;;;;10289105;28;20067;-52
2023/12/26 04:15:14;;;;;;;5.32;3.13;;;;;;;;;;10300283;28;20485;-51
2023/12/26 04:20:13;;;;;;;6.72;3.80;;;;;;;;;;10295799;28;20076;-51
2023/12/26 04:25:13;;;;;;;9.52;3.65;;;;;;;;;;10289917;28;20072;-51
2023/12/26 04:30:11;;;;;;;4.78;3.45;;;;;;;;;;10287685;28;20075;-52
2023/12/26 04:35:10;;;;;;;9.95;4.40;;;;;;;;;;10289569;28;20088;-52
2023/12/26 04:40:09;;;;;;;6.50;4.03;;;;;;;;;;10288840;28;20068;-52
2023/12/26 04:45:10;;;;;;;7.05;5.07;;;;;;;;;;10288832;28;20076;-51
2023/12/26 04:50:09;;;;;;;6.18;4.10;;;;;;;;;;10291697;28;20044;-48
2023/12/26 04:55:08;;;;;;;7.38;3.80;;;;;;;;;;10285974;28;20494;-51
2023/12/26 05:00:07;;;;;;;6.85;3.90;;;;;;;;;;10288688;28;20084;-51
2023/12/26 05:05:08;;;;;;;5.15;4.18;;;;;;;;;;10281630;28;20037;-50
2023/12/26 05:10:07;;;;;;;10.20;4.43;;;;;;;;;;10293496;28;20513;-50
2023/12/26 05:15:06;;;;;;;5.72;3.72;;;;;;;;;;10297532;28;20055;-49
2023/12/26 05:20:05;;;;;;;8.77;4.00;;;;;;;;;;10289492;28;20095;-51
2023/12/26 05:25:20;;;;;;;;;;;;;;;;;;10286342;28;20063;-52
2023/12/26 05:30:19;;;;;;;11.90;4.68;;;;;;;;;;10286870;28;20428;-51
2023/12/26 05:35:18;;;;;;;10.43;4.07;;;;;;;;;;10287551;28;20053;-51
2023/12/26 05:40:17;;;;;;;6.05;3.80;;;;;;;;;;10285951;28;20079;-53
2023/12/26 05:45:16;;;;;;;8.48;4.75;;;;;;;;;;10288986;28;20052;-54
2023/12/26 05:50:17;;;;;;;10.55;9.45;;;;;;;;;;10286440;28;20048;-50
2023/12/26 05:55:15;;;;;;;7.15;6.35;;;;;;;;;;10292947;28;20069;-51
2023/12/26 06:00:15;;;;;;;16.27;10.38;;;;;;;;;;10282401;28;20528;-48
2023/12/26 06:05:13;;;;;;;14.23;6.78;;;;;;;;;;10286927;28;20076;-53
2023/12/26 06:10:14;;;;;;;7.00;4.68;;;;;;;;;;10295221;28;20049;-52
2023/12/26 06:15:12;;;;;;;8.65;5.40;;;;;;;;;;10294622;28;20068;-48
2023/12/26 06:20:11;;;;;;;7.75;5.97;;;;;;;;;;10287619;28;20068;-53
2023/12/26 06:25:10;;;;;;;6.20;4.53;;;;;;;;;;10297584;28;20084;-52
2023/12/26 06:30:11;;;;;;;7.72;4.70;;;;;;;;;;10286744;28;20502;-52
2023/12/26 06:35:10;;;;;;;7.47;5.78;;;;;;;;;;10287142;28;20522;-51
2023/12/26 06:40:09;;;;;;;7.22;5.82;;;;;;;;;;10293732;28;20110;-49
2023/12/26 06:45:10;;;;;;;7.15;4.85;;;;;;;;;;10297547;28;20041;-51
2023/12/26 06:50:09;;;;;;;7.43;4.82;;;;;;;;;;10294115;28;20049;-52
2023/12/26 06:55:08;;;;;;;6.70;4.20;;;;;;;;;;10289513;28;20498;-50
2023/12/26 07:00:07;;;;;;;9.50;6.68;;;;;;;;;;10311872;28;20084;-54
2023/12/26 07:05:07;;;;;;;14.38;6.30;;;;;;;;;;10302340;28;20088;-52
2023/12/26 07:10:06;;;;;;;7.47;4.82;;;;;;;;;;10299528;28;20376;-50
2023/12/26 07:15:05;;;;;;;6.30;4.65;;;;;;;;;;10293894;28;20065;-48
2023/12/26 07:20:04;;;;;;;8.02;5.45;;;;;;;;;;10292378;28;20084;-50
2023/12/26 07:25:04;;;;;;;7.95;5.32;;;;;;;;;;10290436;28;20076;-48
2023/12/26 07:30:02;;;;;;;6.82;5.13;;;;;;;;;;10290523;28;20076;-51
2023/12/26 07:35:01;;;;;;;11.68;5.22;;;;;;;;;;10293174;28;20084;-52
2023/12/26 07:39:59;;;;;;;26.40;20.70;;;;;;;;;;10294071;28;20091;-45
2023/12/26 07:44:59;;;;;;;8.55;5.88;;;;;;;;;;10293397;28;20080;-50
2023/12/26 07:49:57;;;;;;;6.10;5.07;;;;;;;;;;10291674;28;20073;-48
2023/12/26 07:54:56;;;;;;;8.90;5.78;;;;;;;;;;10289664;28;20091;-51
2023/12/26 07:59:54;;;;;;;7.93;4.95;;;;;;;;;;10291779;28;20087;-47
2023/12/26 08:04:54;;;;;;;10.60;6.10;;;;;;;;;;10291078;28;20077;-50
2023/12/26 08:09:52;;;;;;;7.40;5.63;;;;;;;;;;10291838;28;20077;-46
2023/12/26 08:14:51;;;;;;;10.73;5.88;;;;;;;;;;10286791;28;20071;-45
2023/12/26 08:19:49;;;;;;;9.18;5.53;;;;;;;;;;10290915;28;20084;-51
2023/12/26 08:24:49;;;;;;;9.25;5.00;;;;;;;;;;10291462;28;20060;-50
2023/12/26 08:29:47;;;;;;;9.70;5.90;;;;;;;;;;10290062;28;20768;-51
2023/12/26 08:34:46;;;;;;;7.25;5.32;;;;;;;;;;10291322;28;20126;-48
2023/12/26 08:39:44;;;;;;;9.85;6.03;;;;;;;;;;10289301;28;20164;-50
2023/12/26 08:44:44;;;;;;;7.93;5.53;;;;;;;;;;10289525;28;20068;-50
2023/12/26 08:49:42;;;;;;;17.13;8.45;;;;;;;;;;10287723;28;20072;-48
2023/12/26 08:54:42;;;;;;;11.52;6.47;;;;;;;;;;10286739;28;20078;-48
2023/12/26 08:59:41;;;;;;;11.70;5.50;;;;;;;;;;10288402;28;20517;-52
2023/12/26 09:04:40;;;;;;;13.27;7.22;;;;;;;;;;10284185;28;20076;-49
2023/12/26 09:09:39;;;;;;;12.07;7.28;;;;;;;;;;10287274;28;20073;-47
2023/12/26 09:14:37;;;;;;;15.18;10.82;;;;;;;;;;10283332;28;20073;-52
2023/12/26 09:19:36;;;;;;;12.95;5.75;;;;;;;;;;10289774;28;20528;-51
2023/12/26 09:24:36;;;;;;;12.85;7.70;;;;;;;;;;10282892;28;20552;-52
2023/12/26 09:29:34;;;;;;;7.45;5.15;;;;;;;;;;10290239;28;20082;-51
2023/12/26 09:34:32;;;;;;;10.75;6.05;;;;;;;;;;10284209;28;20076;-51
2023/12/26 09:39:31;;;;;;;9.23;6.55;;;;;;;;;;10286129;28;20087;-51
2023/12/26 09:44:31;;;;;;;12.60;7.05;;;;;;;;;;10287421;28;20060;-49
2023/12/26 09:49:29;;;;;;;16.33;7.57;;;;;;;;;;10288555;28;20091;-49
2023/12/26 09:54:30;;;;;;;11.15;5.95;;;;;;;;;;10286998;28;20075;-48
2023/12/26 09:59:29;;;;;;;11.70;7.75;;;;;;;;;;10285775;28;20073;-46
2023/12/26 10:04:29;;;;;;;14.85;7.38;;;;;;;;;;10284307;28;20080;-51
2023/12/26 10:09:27;;;;;;;19.25;10.35;;;;;;;;;;10290652;28;20111;-53
2023/12/26 10:14:29;;;;;;;9.60;6.10;;;;;;;;;;10289829;28;20065;-52
2023/12/26 10:19:29;;;;;;;18.80;12.50;;;;;;;;;;10287926;28;20087;-53
2023/12/26 10:24:29;;;;;;;16.80;10.45;;;;;;;;;;10287358;28;21004;-53
2023/12/26 10:29:27;;;;;;;10.75;6.78;;;;;;;;;;10285874;28;20079;-52
2023/12/26 10:34:29;;;;;;;10.90;5.90;;;;;;;;;;10285517;28;20081;-52
2023/12/26 10:39:29;;;;;;;11.38;5.55;;;;;;;;;;10282434;28;20067;-48
2023/12/26 10:44:52;;;;;;;7.78;5.05;;;;;;;;;;10286336;28;20101;-53
2023/12/26 10:49:55;;;;;;;11.35;6.13;;;;;;;;;;10286329;28;20087;-49
2023/12/26 10:54:58;;;;;;;10.68;5.60;;;;;;;;;;10283547;28;20450;-53
2023/12/26 13:56:36;;;;;;;11.15;4.97;;;;;;;;;;10288175;28;20076;-52
2023/12/26 14:01:53;;;;;;;9.93;6.35;;;;;;;;;;10286353;28;20080;-48
2023/12/26 14:07:09;;;;;;;10.18;6.43;;;;;;;;;;10289098;28;20095;-49
2023/12/26 14:12:27;;;;;;;10.02;6.47;;;;;;;;;;10284759;28;20048;-47
2023/12/26 14:17:44;;;;;;;12.27;8.23;;;;;;;;;;10286829;28;20091;-50
2023/12/26 14:23:01;;;;;;;14.05;7.82;;;;;;;;;;10285316;28;20123;-46
2023/12/26 14:28:17;;;;;;;11.40;6.28;;;;;;;;;;10286195;28;20064;-46
2023/12/26 14:33:19;;;;;;;14.80;8.35;;;;;;;;;;10286227;28;20088;-49
2023/12/26 14:38:18;;;;;;;20.52;11.65;;;;;;;;;;10286050;28;20064;-52
2023/12/26 14:43:35;;;;;;;24.67;15.00;;;;;;;;;;10284919;28;20073;-45
2023/12/26 14:48:54;;;;;;;11.85;9.07;;;;;;;;;;10286897;28;20087;-46
2023/12/26 14:53:54;;;;;;;12.30;7.60;;;;;;;;;;10285248;28;20073;-50
2023/12/26 14:58:52;;;;;;;13.82;9.35;;;;;;;;;;10285688;28;20073;-50
2023/12/26 15:03:56;;;;;;;22.50;13.60;;;;;;;;;;10289414;28;20068;-52
2023/12/26 15:08:57;;;;;;;23.58;15.65;;;;;;;;;;10300188;28;20067;-46
2023/12/26 15:13:56;;;;;;;23.77;16.60;;;;;;;;;;10291704;28;20072;-46
2023/12/26 15:19:14;;;;;;;22.13;11.80;;;;;;;;;;10288179;28;20072;-52
2023/12/26 15:24:14;;;;;;;12.68;6.35;;;;;;;;;;10297398;28;20069;-54
2023/12/26 15:29:13;;;;;;;25.27;20.02;;;;;;;;;;10302322;28;20069;-54
2023/12/26 15:34:11;;;;;;;17.60;13.40;;;;;;;;;;10303519;28;20088;-53
2023/12/26 15:39:10;;;;;;;24.10;15.15;;;;;;;;;;10291292;28;20075;-52
2023/12/26 15:44:10;;;;;;;23.88;15.90;;;;;;;;;;10291812;28;20061;-54
2023/12/26 15:49:09;;;;;;;14.30;8.02;;;;;;;;;;10293345;28;20471;-54
2023/12/26 15:54:07;;;;;;;9.05;5.90;;;;;;;;;;10294639;28;20087;-54
2023/12/26 15:59:06;;;;;;;5.97;5.25;;;;;;;;;;10296465;28;20067;-54
2023/12/26 16:04:06;;;;;;;7.80;6.00;;;;;;;;;;10291081;28;20075;-53
2023/12/26 16:09:05;;;;;;;9.77;5.28;;;;;;;;;;10296121;28;20060;-55
2023/12/26 16:14:04;;;;;;;9.30;6.22;;;;;;;;;;10291005;28;20069;-51
2023/12/26 16:19:02;;;;;;;11.38;7.05;;;;;;;;;;10292425;28;20124;-54
2023/12/26 16:24:05;;;;;;;13.52;6.95;;;;;;;;;;10280783;28;20075;-54
2023/12/26 16:29:05;;;;;;;32.30;21.48;;;;;;;;;;10293729;28;20064;-55
2023/12/26 16:34:03;;;;;;;19.50;13.73;;;;;;;;;;10291552;28;20503;-49
2023/12/26 16:39:02;;;;;;;39.38;27.73;;;;;;;;;;10292125;28;20068;-52
2023/12/26 16:44:02;;;;;;;51.58;38.38;;;;;;;;;;10287460;28;20068;-52
2023/12/26 16:49:00;;;;;;;45.13;32.67;;;;;;;;;;10289019;28;20471;-50
2023/12/26 16:53:59;;;;;;;19.33;16.23;;;;;;;;;;10289447;28;20072;-51
2023/12/26 16:58:57;;;;;;;15.85;11.73;;;;;;;;;;10287070;28;20813;-52
2023/12/26 17:03:57;;;;;;;9.70;6.25;;;;;;;;;;10286525;28;20068;-54
2023/12/26 17:08:55;;;;;;;11.95;6.75;;;;;;;;;;10287144;28;20072;-50
2023/12/26 17:13:54;;;;;;;13.20;8.20;;;;;;;;;;10292003;28;20065;-49
2023/12/26 17:18:52;;;;;;;9.98;6.85;;;;;;;;;;10291424;28;20517;-52
2023/12/26 17:23:52;;;;;;;13.18;10.38;;;;;;;;;;10288478;28;20078;-53
2023/12/26 17:28:54;;;;;;;21.88;15.25;;;;;;;;;;10281939;28;20064;-53
2023/12/26 17:33:52;;;;;;;11.93;7.50;;;;;;;;;;10285289;28;20091;-53
2023/12/26 17:38:52;;;;;;;7.88;5.43;;;;;;;;;;10296219;28;20068;-53
2023/12/26 17:43:51;;;;;;;9.00;6.00;;;;;;;;;;10292451;28;20076;-53
2023/12/26 17:48:49;;;;;;;8.60;5.47;;;;;;;;;;10290387;28;20144;-53
2023/12/26 17:53:48;;;;;;;10.48;5.75;;;;;;;;;;10289770;28;20076;-54
2023/12/26 17:58:48;;;;;;;8.75;5.68;;;;;;;;;;10283384;28;20497;-52
2023/12/26 18:03:47;;;;;;;7.80;4.75;;;;;;;;;;10287135;28;20072;-52
2023/12/26 18:08:46;;;;;;;11.25;5.28;;;;;;;;;;10285260;28;20087;-54
2023/12/26 18:13:44;;;;;;;10.07;5.32;;;;;;;;;;10285984;28;20505;-54
2023/12/26 18:18:44;;;;;;;6.88;4.75;;;;;;;;;;10285015;28;20071;-52
2023/12/26 18:23:42;;;;;;;8.50;5.38;;;;;;;;;;10289856;28;20090;-52
2023/12/26 18:28:41;;;;;;;12.00;6.47;;;;;;;;;;10289510;28;20067;-52
2023/12/26 18:33:39;;;;;;;8.98;5.35;;;;;;;;;;10282650;28;20763;-53
2023/12/26 18:38:39;;;;;;;6.78;5.78;;;;;;;;;;10286897;28;20095;-54
2023/12/26 18:43:37;;;;;;;6.15;4.85;;;;;;;;;;10291055;28;20084;-53
2023/12/26 18:48:36;;;;;;;8.50;4.60;;;;;;;;;;10299045;28;20076;-50
2023/12/26 18:53:34;;;;;;;8.75;5.55;;;;;;;;;;10298810;28;20091;-53
2023/12/26 18:58:34;;;;;;;8.10;4.70;;;;;;;;;;10299346;28;20060;-50
2023/12/26 19:03:32;;;;;;;8.95;4.97;;;;;;;;;;10299306;28;20144;-50
2023/12/26 19:08:32;;;;;;;9.32;5.43;;;;;;;;;;10301887;28;20065;-52
2023/12/26 19:13:30;;;;;;;8.50;5.65;;;;;;;;;;10299667;28;20079;-51
2023/12/26 19:18:30;;;;;;;9.50;5.53;;;;;;;;;;10294520;28;20152;-54
2023/12/26 19:23:28;;;;;;;24.77;14.95;;;;;;;;;;10302172;28;20156;-54
2023/12/26 19:28:27;;;;;;;14.07;9.52;;;;;;;;;;10301416;28;20115;-57
2023/12/26 19:33:25;;;;;;;10.07;6.32;;;;;;;;;;10298007;28;20090;-52
2023/12/26 19:38:26;;;;;;;10.68;6.10;;;;;;;;;;10296006;28;20584;-54
2023/12/26 19:43:24;;;;;;;11.85;6.68;;;;;;;;;;10294933;28;20143;-51
2023/12/26 19:48:22;;;;;;;10.45;5.75;;;;;;;;;;10295290;28;20477;-53
2023/12/26 19:53:21;;;;;;;12.60;6.88;;;;;;;;;;10296070;28;20120;-51
2023/12/26 19:58:21;;;;;;;13.02;9.30;;;;;;;;;;10293363;28;20147;-52
2023/12/26 20:03:19;;;;;;;12.93;8.30;;;;;;;;;;10296240;28;20498;-52
2023/12/26 20:08:24;;;;;;;17.75;8.82;;;;;;;;;;10291788;28;20080;-50
2023/12/26 20:13:24;;;;;;;14.48;10.07;;;;;;;;;;10293247;28;20063;-53
2023/12/26 20:18:22;;;;;;;11.40;6.47;;;;;;;;;;10296984;28;20123;-50
2023/12/26 20:23:30;;;;;;;13.90;7.70;;;;;;;;;;10288017;28;20076;-51
2023/12/26 20:28:30;;;;;;;13.32;6.32;;;;;;;;;;10284268;28;20128;-53
2023/12/26 20:33:28;;;;;;;12.13;7.95;;;;;;;;;;10287951;28;20076;-52
2023/12/26 20:38:26;;;;;;;10.20;6.75;;;;;;;;;;10292089;28;20696;-53
2023/12/26 20:43:25;;;;;;;9.90;7.15;;;;;;;;;;10300294;28;20123;-52
2023/12/26 20:48:24;;;;;;;9.52;6.25;;;;;;;;;;10302243;28;20063;-55
2023/12/26 20:53:23;;;;;;;12.80;7.25;;;;;;;;;;10292407;28;20373;-54
2023/12/26 20:58:21;;;;;;;12.57;7.15;;;;;;;;;;10291448;28;20057;-50
2023/12/26 21:03:19;;;;;;;8.85;6.45;;;;;;;;;;10286686;28;20084;-50
2023/12/26 21:08:19;;;;;;;8.52;5.38;;;;;;;;;;10295219;28;20071;-52
2023/12/26 21:13:18;;;;;;;8.13;5.95;;;;;;;;;;10293074;28;20077;-52
2023/12/26 21:18:28;;;;;;;14.50;6.78;;;;;;;;;;10293613;28;20589;-49
2023/12/26 21:23:28;;;;;;;13.73;6.88;;;;;;;;;;10295842;28;20485;-52
2023/12/26 21:28:26;;;;;;;10.07;7.13;;;;;;;;;;10291214;28;20079;-51
2023/12/26 21:33:24;;;;;;;13.65;7.82;;;;;;;;;;10295428;28;20076;-52
2023/12/26 21:38:23;;;;;;;13.93;9.05;;;;;;;;;;10288930;28;20085;-54
2023/12/26 21:43:24;;;;;;;10.27;6.47;;;;;;;;;;10289349;28;20092;-55
2023/12/26 21:48:22;;;;;;;7.75;5.95;;;;;;;;;;10285917;28;20068;-50
2023/12/26 21:53:21;;;;;;;12.50;7.15;;;;;;;;;;10292787;28;20068;-54
2023/12/26 21:58:19;;;;;;;10.93;6.90;;;;;;;;;;10286100;28;20144;-51
2023/12/26 22:03:19;;;;;;;12.40;7.28;;;;;;;;;;10288961;28;20068;-53
2023/12/26 22:08:17;;;;;;;11.77;7.55;;;;;;;;;;10283615;28;20065;-55
2023/12/26 22:13:18;;;;;;;10.85;7.85;;;;;;;;;;10291214;28;20075;-53
2023/12/26 22:18:17;;;;;;;17.23;9.55;;;;;;;;;;10285384;28;20076;-52
2023/12/26 22:23:17;;;;;;;17.85;9.43;;;;;;;;;;10287813;28;20108;-54
2023/12/26 22:28:15;;;;;;;14.77;8.50;;;;;;;;;;10281299;28;20064;-50
2023/12/26 22:33:13;;;;;;;12.30;8.10;;;;;;;;;;10284025;28;20073;-49
2023/12/26 22:38:12;;;;;;;14.23;7.65;;;;;;;;;;10281837;28;20072;-52
2023/12/26 22:43:12;;;;;;;16.50;8.38;;;;;;;;;;10288834;28;20068;-54
2023/12/26 22:48:10;;;;;;;11.65;7.32;;;;;;;;;;10298794;28;20064;-55
2023/12/26 22:53:09;;;;;;;11.43;6.75;;;;;;;;;;10288422;28;20076;-48
2023/12/26 22:58:07;;;;;;;14.68;7.65;;;;;;;;;;10288578;28;20072;-54
2023/12/26 23:03:07;;;;;;;12.52;6.80;;;;;;;;;;10287103;28;20084;-54
2023/12/26 23:08:05;;;;;;;15.68;7.75;;;;;;;;;;10284268;28;20471;-54
2023/12/26 23:13:04;;;;;;;10.82;6.53;;;;;;;;;;10283717;28;20068;-53
2023/12/26 23:18:02;;;;;;;9.35;6.45;;;;;;;;;;10299199;28;20076;-56
2023/12/26 23:23:02;;;;;;;20.35;8.77;;;;;;;;;;10282422;28;20072;-52
2023/12/26 23:28:01;;;;;;;11.63;7.47;;;;;;;;;;10304441;28;20064;-53
2023/12/26 23:32:59;;;;;;;10.50;6.32;;;;;;;;;;10302441;28;20072;-54
2023/12/26 23:37:58;;;;;;;9.40;6.28;;;;;;;;;;10299803;28;20075;-53
2023/12/26 23:42:58;;;;;;;10.25;6.68;;;;;;;;;;10286264;28;20071;-54
2023/12/26 23:47:56;;;;;;;17.27;7.72;;;;;;;;;;10291698;28;20079;-55
2023/12/26 23:52:57;;;;;;;10.00;6.13;;;;;;;;;;10288980;28;20068;-52
2023/12/26 23:57:56;;;;;;;19.08;6.63;;;;;;;;;;10293066;28;20501;-54
